createdAt,value
2023-05-19T00:01:15.316Z,13.87
2023-05-19T00:03:53.872Z,13.73
2023-05-19T00:06:25.243Z,13.73
2023-05-19T00:09:02.772Z,13.67
2023-05-19T00:11:30.230Z,13.03
2023-05-19T00:13:59.207Z,12.89
2023-05-19T00:16:26.984Z,13.39
2023-05-19T00:18:54.605Z,13.68
2023-05-19T00:21:21.616Z,13.80
2023-05-19T00:23:48.735Z,13.50
2023-05-19T00:26:15.733Z,13.66
2023-05-19T00:28:53.069Z,13.92
2023-05-19T00:31:20.735Z,13.80
2023-05-19T00:33:47.844Z,13.98
2023-05-19T00:36:15.029Z,13.62
2023-05-19T00:38:42.138Z,13.60
2023-05-19T00:41:09.149Z,13.58
2023-05-19T00:43:36.468Z,13.70
2023-05-19T00:46:03.574Z,13.69
2023-05-19T00:48:30.705Z,13.47
2023-05-19T00:51:04.927Z,13.07
2023-05-19T00:53:32.700Z,13.04
2023-05-19T00:56:00.539Z,12.41
2023-05-19T00:58:30.592Z,12.56
2023-05-19T01:01:04.600Z,12.63
2023-05-19T01:03:32.928Z,12.70
2023-05-19T01:06:04.942Z,13.09
2023-05-19T01:08:32.913Z,13.21
2023-05-19T01:11:00.152Z,13.38
2023-05-19T01:13:30.480Z,13.55
2023-05-19T01:16:01.499Z,13.87
2023-05-19T01:18:50.280Z,14.06
2023-05-19T01:21:36.459Z,14.18
2023-05-19T01:24:41.084Z,14.28
2023-05-19T01:27:11.113Z,14.38
2023-05-19T01:29:44.258Z,14.41
2023-05-19T01:32:11.931Z,14.51
2023-05-19T01:34:43.187Z,14.55
2023-05-19T01:37:10.305Z,14.57
2023-05-19T01:39:37.316Z,14.57
2023-05-19T01:42:04.560Z,14.49
2023-05-19T01:44:31.846Z,14.31
2023-05-19T01:46:59.155Z,14.28
2023-05-19T01:49:26.229Z,14.35
2023-05-19T01:51:54.292Z,14.50
2023-05-19T01:54:22.520Z,14.23
2023-05-19T01:56:52.268Z,14.51
2023-05-19T01:59:37.686Z,14.41
2023-05-19T02:02:11.143Z,14.19
2023-05-19T02:04:41.327Z,14.34
2023-05-19T02:07:21.355Z,14.50
2023-05-19T02:10:11.259Z,14.63
2023-05-19T02:12:40.414Z,14.67
2023-05-19T02:15:18.048Z,14.75
2023-05-19T02:17:48.473Z,14.82
2023-05-19T02:20:16.320Z,14.62
2023-05-19T02:22:43.388Z,14.69
2023-05-19T02:25:10.887Z,14.82
2023-05-19T02:27:38.478Z,14.90
2023-05-19T02:30:06.478Z,14.97
2023-05-19T02:32:33.608Z,14.98
2023-05-19T02:35:00.750Z,15.01
2023-05-19T02:37:31.233Z,14.98
2023-05-19T02:39:58.396Z,14.91
2023-05-19T02:42:25.476Z,14.95
2023-05-19T02:44:55.371Z,14.95
2023-05-19T02:47:22.630Z,14.88
2023-05-19T02:49:49.954Z,14.90
2023-05-19T02:52:17.119Z,14.96
2023-05-19T02:54:44.204Z,14.93
2023-05-19T02:57:11.510Z,14.94
2023-05-19T02:59:38.594Z,14.97
2023-05-19T03:02:05.834Z,15.03
2023-05-19T03:04:32.907Z,15.11
2023-05-19T03:06:59.984Z,15.02
2023-05-19T03:09:27.140Z,15.01
2023-05-19T03:11:54.169Z,15.01
2023-05-19T03:14:24.014Z,15.06
2023-05-19T03:16:51.544Z,14.99
2023-05-19T03:19:18.771Z,14.91
2023-05-19T03:21:46.453Z,14.81
2023-05-19T03:24:13.854Z,14.80
2023-05-19T03:26:41.130Z,14.85
2023-05-19T03:29:08.442Z,14.84
2023-05-19T03:31:37.364Z,14.71
2023-05-19T03:34:05.348Z,14.71
2023-05-19T03:36:32.484Z,14.66
2023-05-19T03:39:00.465Z,14.57
2023-05-19T03:41:28.180Z,14.50
2023-05-19T03:43:56.212Z,14.64
2023-05-19T03:46:23.614Z,14.75
2023-05-19T03:49:13.984Z,14.03
2023-05-19T03:51:59.534Z,14.20
2023-05-19T03:54:33.612Z,14.25
2023-05-19T03:57:00.660Z,14.35
2023-05-19T03:59:28.180Z,14.37
2023-05-19T04:01:55.256Z,14.28
2023-05-19T04:04:22.911Z,13.42
2023-05-19T04:06:50.040Z,13.63
2023-05-19T04:09:17.109Z,13.42
2023-05-19T04:11:44.253Z,13.85
2023-05-19T04:14:11.293Z,13.89
2023-05-19T04:16:38.350Z,13.72
2023-05-19T04:19:05.851Z,13.66
2023-05-19T04:21:33.134Z,13.82
2023-05-19T04:24:00.249Z,13.92
2023-05-19T04:26:30.763Z,13.92
2023-05-19T04:28:57.959Z,13.26
2023-05-19T04:31:25.101Z,13.11
2023-05-19T04:33:53.579Z,13.54
2023-05-19T04:36:21.964Z,13.19
2023-05-19T04:38:54.981Z,12.76
2023-05-19T04:41:25.114Z,11.92
2023-05-19T04:43:52.172Z,12.79
2023-05-19T04:46:24.498Z,13.55
2023-05-19T04:48:55.426Z,13.66
2023-05-19T04:51:22.674Z,13.00
2023-05-19T04:53:49.830Z,13.25
2023-05-19T04:56:16.998Z,13.48
2023-05-19T04:58:45.863Z,13.52
2023-05-19T05:01:14.009Z,13.32
2023-05-19T05:03:42.269Z,13.27
2023-05-19T05:06:11.815Z,13.11
2023-05-19T05:08:40.594Z,12.68
2023-05-19T05:11:08.065Z,12.78
2023-05-19T05:13:35.601Z,12.95
2023-05-19T05:16:06.539Z,12.85
2023-05-19T05:18:34.464Z,13.26
2023-05-19T05:21:01.744Z,12.92
2023-05-19T05:23:29.550Z,12.52
2023-05-19T05:25:57.415Z,12.25
2023-05-19T05:28:24.544Z,12.37
2023-05-19T05:30:51.586Z,12.54
2023-05-19T05:33:19.592Z,12.73
2023-05-19T05:35:47.909Z,12.78
2023-05-19T05:38:15.258Z,12.75
2023-05-19T05:40:42.644Z,12.32
2023-05-19T05:43:10.208Z,12.94
2023-05-19T05:45:43.986Z,12.89
2023-05-19T05:48:11.647Z,12.02
2023-05-19T05:50:39.343Z,12.92
2023-05-19T05:53:07.549Z,12.89
2023-05-19T05:55:37.446Z,12.76
2023-05-19T05:58:06.418Z,12.80
2023-05-19T06:00:34.740Z,12.97
2023-05-19T06:03:03.197Z,12.11
2023-05-19T06:05:31.433Z,12.11
2023-05-19T06:07:58.614Z,12.73
2023-05-19T06:10:28.537Z,13.16
2023-05-19T06:12:56.021Z,13.35
2023-05-19T06:15:23.929Z,13.63
2023-05-19T06:17:58.715Z,13.90
2023-05-19T06:20:25.810Z,12.81
2023-05-19T06:22:53.156Z,13.21
2023-05-19T06:25:21.929Z,13.07
2023-05-19T06:27:50.104Z,12.92
2023-05-19T06:30:17.288Z,12.46
2023-05-19T06:32:54.100Z,13.02
2023-05-19T06:35:21.273Z,13.06
2023-05-19T06:37:48.553Z,13.68
2023-05-19T06:40:15.837Z,14.24
2023-05-19T06:42:43.679Z,14.48
2023-05-19T06:45:16.754Z,14.23
2023-05-19T06:47:44.777Z,13.93
2023-05-19T06:50:12.075Z,13.38
2023-05-19T06:52:42.012Z,13.06
2023-05-19T06:55:09.203Z,12.92
2023-05-19T06:57:38.511Z,13.72
2023-05-19T07:00:09.799Z,13.58
2023-05-19T07:02:37.123Z,13.52
2023-05-19T07:05:04.686Z,13.79
2023-05-19T07:07:31.948Z,12.86
2023-05-19T07:09:59.331Z,13.21
2023-05-19T07:12:27.252Z,13.52
2023-05-19T07:14:54.732Z,13.13
2023-05-19T07:17:23.294Z,13.05
2023-05-19T07:19:50.522Z,12.95
2023-05-19T07:22:17.753Z,12.99
2023-05-19T07:24:45.315Z,13.03
2023-05-19T07:27:12.743Z,13.06
2023-05-19T07:29:40.156Z,13.54
2023-05-19T07:32:07.418Z,13.28
2023-05-19T07:34:35.189Z,13.21
2023-05-19T07:37:03.531Z,13.32
2023-05-19T07:39:32.838Z,12.96
2023-05-19T07:42:01.011Z,12.81
2023-05-19T07:44:28.375Z,12.82
2023-05-19T07:46:55.859Z,12.51
2023-05-19T07:49:23.164Z,13.15
2023-05-19T07:51:50.734Z,13.76
2023-05-19T07:54:18.763Z,14.27
2023-05-19T07:56:45.759Z,13.73
2023-05-19T07:59:13.404Z,12.97
2023-05-19T08:01:40.473Z,13.40
2023-05-19T08:04:10.306Z,13.98
2023-05-19T08:06:38.933Z,12.81
2023-05-19T08:09:06.458Z,13.43
2023-05-19T08:11:33.603Z,13.50
2023-05-19T08:14:00.690Z,13.67
2023-05-19T08:16:27.878Z,14.02
2023-05-19T08:18:55.662Z,13.54
2023-05-19T08:21:22.890Z,13.03
2023-05-19T08:23:50.077Z,13.56
2023-05-19T08:26:17.110Z,13.70
2023-05-19T08:28:44.354Z,13.83
2023-05-19T08:31:11.557Z,12.84
2023-05-19T08:33:39.047Z,12.86
2023-05-19T08:36:06.717Z,13.24
2023-05-19T08:38:33.807Z,13.18
2023-05-19T08:41:00.885Z,13.63
2023-05-19T08:43:28.058Z,13.50
2023-05-19T08:45:55.560Z,12.90
2023-05-19T08:48:22.901Z,13.15
2023-05-19T08:50:57.653Z,13.60
2023-05-19T08:53:34.084Z,13.25
2023-05-19T08:56:04.159Z,12.99
2023-05-19T08:58:31.493Z,13.04
2023-05-19T09:00:58.565Z,12.92
2023-05-19T09:03:26.688Z,13.67
2023-05-19T09:05:53.837Z,13.48
2023-05-19T09:08:21.175Z,13.64
2023-05-19T09:10:48.217Z,13.27
2023-05-19T09:13:15.303Z,14.02
2023-05-19T09:15:42.357Z,14.44
2023-05-19T09:18:11.017Z,13.69
2023-05-19T09:20:42.510Z,13.13
2023-05-19T09:23:17.549Z,13.48
2023-05-19T09:25:51.224Z,13.33
2023-05-19T09:28:33.358Z,12.64
2023-05-19T09:31:04.160Z,13.24
2023-05-19T09:33:33.512Z,13.84
2023-05-19T09:36:00.755Z,13.22
2023-05-19T09:38:27.983Z,12.74
2023-05-19T09:40:58.885Z,12.69
2023-05-19T09:43:33.772Z,13.20
2023-05-19T09:46:07.359Z,13.77
2023-05-19T09:48:35.650Z,13.62
2023-05-19T09:51:03.406Z,13.86
2023-05-19T09:53:31.332Z,14.30
2023-05-19T09:55:58.502Z,14.93
2023-05-19T09:58:26.578Z,14.92
2023-05-19T10:00:54.891Z,14.56
2023-05-19T10:03:23.377Z,15.21
2023-05-19T10:05:50.669Z,13.63
2023-05-19T10:08:18.080Z,14.20
2023-05-19T10:10:48.349Z,13.77
2023-05-19T10:13:16.582Z,13.68
2023-05-19T10:15:57.146Z,14.04
2023-05-19T10:18:27.042Z,14.59
2023-05-19T10:20:54.373Z,14.55
2023-05-19T10:23:22.474Z,15.03
2023-05-19T10:25:50.605Z,14.26
2023-05-19T10:28:17.796Z,14.40
2023-05-19T10:30:46.156Z,14.35
2023-05-19T10:33:16.006Z,14.34
2023-05-19T10:35:44.190Z,14.65
2023-05-19T10:38:22.203Z,14.60
2023-05-19T10:41:07.907Z,13.75
2023-05-19T10:43:44.103Z,14.11
2023-05-19T10:46:11.215Z,14.54
2023-05-19T10:48:38.248Z,14.71
2023-05-19T10:51:07.297Z,15.13
2023-05-19T10:53:35.076Z,15.13
2023-05-19T10:56:07.125Z,15.52
2023-05-19T10:58:46.549Z,15.75
2023-05-19T11:01:17.470Z,15.77
2023-05-19T11:03:52.520Z,16.21
2023-05-19T11:06:20.925Z,15.68
2023-05-19T11:08:52.317Z,16.29
2023-05-19T11:11:19.588Z,15.49
2023-05-19T11:13:56.396Z,15.41
2023-05-19T11:16:30.043Z,15.17
2023-05-19T11:18:59.165Z,15.15
2023-05-19T11:21:41.863Z,15.18
2023-05-19T11:24:09.956Z,15.36
2023-05-19T11:26:41.121Z,15.64
2023-05-19T11:29:08.101Z,15.54
2023-05-19T11:31:36.468Z,16.00
2023-05-19T11:34:05.513Z,16.03
2023-05-19T11:36:32.621Z,17.02
2023-05-19T11:39:00.207Z,17.58
2023-05-19T11:41:28.556Z,18.13
2023-05-19T11:43:55.653Z,17.16
2023-05-19T11:46:22.699Z,18.04
2023-05-19T11:48:50.648Z,15.99
2023-05-19T11:51:17.690Z,14.90
2023-05-19T11:53:46.177Z,14.97
2023-05-19T11:56:13.263Z,15.68
2023-05-19T11:58:40.405Z,14.62
2023-05-19T12:01:10.351Z,14.94
2023-05-19T12:03:37.580Z,14.78
2023-05-19T12:06:06.035Z,14.97
2023-05-19T12:08:33.540Z,15.11
2023-05-19T12:11:00.586Z,15.45
2023-05-19T12:13:27.630Z,16.40
2023-05-19T12:16:01.878Z,16.35
2023-05-19T12:18:36.972Z,16.74
2023-05-19T12:21:04.704Z,16.95
2023-05-19T12:23:32.343Z,17.92
2023-05-19T12:25:59.777Z,17.62
2023-05-19T12:28:26.883Z,17.53
2023-05-19T12:30:54.085Z,16.12
2023-05-19T12:33:22.029Z,16.06
2023-05-19T12:35:50.057Z,15.84
2023-05-19T12:38:17.288Z,16.48
2023-05-19T12:40:44.366Z,17.36
2023-05-19T12:43:23.913Z,16.99
2023-05-19T12:45:51.007Z,17.29
2023-05-19T12:48:18.837Z,17.76
2023-05-19T12:50:46.008Z,17.05
2023-05-19T12:53:13.534Z,16.86
2023-05-19T12:55:44.798Z,16.62
2023-05-19T12:58:12.535Z,16.30
2023-05-19T13:00:44.970Z,16.60
2023-05-19T13:03:19.647Z,16.73
2023-05-19T13:05:50.522Z,16.57
2023-05-19T13:08:21.601Z,15.85
2023-05-19T13:10:49.719Z,16.25
2023-05-19T13:13:35.503Z,15.82
2023-05-19T13:16:21.157Z,15.87
2023-05-19T13:19:06.937Z,15.82
2023-05-19T13:21:33.997Z,15.85
2023-05-19T13:24:01.147Z,15.44
2023-05-19T13:26:28.186Z,15.52
2023-05-19T13:28:55.290Z,16.03
2023-05-19T13:31:22.471Z,16.20
2023-05-19T13:33:49.671Z,16.53
2023-05-19T13:36:16.788Z,16.42
2023-05-19T13:38:43.956Z,16.49
2023-05-19T13:41:11.000Z,16.35
2023-05-19T13:43:38.112Z,16.47
2023-05-19T13:46:05.204Z,16.46
2023-05-19T13:48:32.581Z,16.34
2023-05-19T13:50:59.684Z,17.51
2023-05-19T13:53:27.457Z,16.69
2023-05-19T13:55:56.114Z,16.56
2023-05-19T13:58:23.441Z,16.09
2023-05-19T14:00:54.650Z,16.76
2023-05-19T14:03:22.107Z,16.67
2023-05-19T14:05:49.228Z,17.01
2023-05-19T14:08:16.510Z,17.29
2023-05-19T14:10:43.517Z,18.02
2023-05-19T14:13:31.348Z,18.64
2023-05-19T14:15:59.633Z,18.14
2023-05-19T14:18:26.697Z,17.77
2023-05-19T14:20:53.768Z,16.84
2023-05-19T14:23:21.737Z,17.59
2023-05-19T14:25:48.926Z,17.76
2023-05-19T14:28:15.911Z,18.29
2023-05-19T14:30:43.267Z,17.65
2023-05-19T14:33:10.456Z,18.39
2023-05-19T14:35:37.624Z,18.83
2023-05-19T14:38:04.644Z,18.98
2023-05-19T14:40:31.861Z,18.73
2023-05-19T14:42:59.120Z,17.51
2023-05-19T14:45:26.177Z,17.95
2023-05-19T14:47:53.407Z,18.18
2023-05-19T14:50:20.860Z,19.39
2023-05-19T14:52:47.973Z,19.71
2023-05-19T14:55:15.176Z,19.71
2023-05-19T14:57:43.521Z,18.47
2023-05-19T15:00:11.060Z,17.52
2023-05-19T15:02:38.092Z,16.98
2023-05-19T15:05:05.600Z,17.10
2023-05-19T15:07:33.218Z,17.57
2023-05-19T15:10:01.727Z,17.49
2023-05-19T15:12:28.953Z,18.29
2023-05-19T15:14:56.323Z,19.09
2023-05-19T15:17:23.416Z,19.65
2023-05-19T15:19:50.563Z,19.61
2023-05-19T15:22:17.698Z,19.54
2023-05-19T15:24:44.733Z,19.63
2023-05-19T15:27:11.762Z,18.65
2023-05-19T15:29:38.787Z,17.49
2023-05-19T15:32:06.227Z,17.41
2023-05-19T15:34:33.210Z,17.58
2023-05-19T15:37:00.517Z,17.31
2023-05-19T15:39:27.656Z,17.52
2023-05-19T15:41:54.622Z,18.38
2023-05-19T15:44:21.643Z,18.92
2023-05-19T15:46:48.753Z,18.50
2023-05-19T15:49:17.912Z,18.54
2023-05-19T15:51:45.174Z,18.86
2023-05-19T15:54:12.219Z,19.08
2023-05-19T15:56:39.306Z,19.40
2023-05-19T15:59:06.381Z,19.49
2023-05-19T16:01:33.448Z,18.96
2023-05-19T16:04:02.224Z,18.85
2023-05-19T16:06:30.123Z,19.65
2023-05-19T16:08:57.403Z,18.48
2023-05-19T16:11:24.477Z,18.59
2023-05-19T16:13:51.506Z,18.75
2023-05-19T16:16:18.927Z,17.56
2023-05-19T16:18:46.031Z,17.72
2023-05-19T16:21:13.228Z,18.08
2023-05-19T16:23:40.337Z,17.54
2023-05-19T16:26:07.633Z,17.74
2023-05-19T16:28:34.813Z,18.39
2023-05-19T16:31:01.971Z,18.53
2023-05-19T16:33:30.066Z,18.73
2023-05-19T16:35:58.452Z,18.66
2023-05-19T16:38:26.744Z,18.82
2023-05-19T16:40:53.875Z,18.68
2023-05-19T16:43:20.992Z,19.11
2023-05-19T16:45:48.041Z,19.38
2023-05-19T16:48:15.238Z,19.43
2023-05-19T16:50:42.385Z,19.51
2023-05-19T16:53:09.499Z,19.22
2023-05-19T16:55:36.554Z,19.02
2023-05-19T16:58:03.612Z,19.32
2023-05-19T17:00:30.768Z,19.18
2023-05-19T17:02:58.082Z,19.39
2023-05-19T17:05:25.304Z,19.65
2023-05-19T17:07:52.389Z,19.16
2023-05-19T17:10:19.464Z,18.91
2023-05-19T17:12:46.504Z,18.57
2023-05-19T17:15:13.626Z,19.07
2023-05-19T17:17:40.873Z,19.45
2023-05-19T17:20:08.589Z,19.85
2023-05-19T17:22:35.696Z,20.32
2023-05-19T17:25:02.791Z,19.44
2023-05-19T17:27:29.982Z,19.47
2023-05-19T17:29:57.122Z,18.86
2023-05-19T17:32:28.240Z,19.29
2023-05-19T17:34:55.781Z,19.18
2023-05-19T17:37:25.750Z,19.35
2023-05-19T17:39:52.958Z,19.24
2023-05-19T17:42:20.054Z,18.97
2023-05-19T17:44:47.081Z,18.97
2023-05-19T17:47:14.146Z,18.70
2023-05-19T17:49:41.830Z,18.84
2023-05-19T17:52:09.625Z,18.87
2023-05-19T17:54:37.009Z,19.34
2023-05-19T17:57:04.207Z,18.48
2023-05-19T17:59:31.717Z,18.30
2023-05-19T18:01:59.172Z,17.92
2023-05-19T18:04:26.854Z,18.06
2023-05-19T18:06:54.032Z,17.94
2023-05-19T18:09:21.580Z,18.72
2023-05-19T18:11:48.725Z,18.62
2023-05-19T18:14:15.932Z,18.04
2023-05-19T18:16:43.072Z,17.86
2023-05-19T18:19:10.275Z,17.68
2023-05-19T18:21:37.414Z,17.75
2023-05-19T18:24:05.475Z,17.90
2023-05-19T18:26:33.574Z,17.49
2023-05-19T18:29:04.833Z,17.68
2023-05-19T18:31:32.471Z,18.16
2023-05-19T18:33:59.705Z,18.12
2023-05-19T18:36:26.766Z,18.04
2023-05-19T18:38:55.218Z,18.29
2023-05-19T18:41:22.463Z,17.83
2023-05-19T18:43:49.516Z,17.94
2023-05-19T18:46:19.741Z,18.04
2023-05-19T18:48:46.987Z,17.82
2023-05-19T18:51:15.909Z,17.35
2023-05-19T18:53:42.978Z,17.30
2023-05-19T18:56:11.280Z,17.97
2023-05-19T18:58:38.349Z,17.81
2023-05-19T19:01:05.577Z,18.01
2023-05-19T19:03:32.648Z,17.69
2023-05-19T19:05:59.838Z,17.82
2023-05-19T19:08:26.918Z,18.15
2023-05-19T19:10:59.328Z,18.19
2023-05-19T19:13:27.178Z,17.92
2023-05-19T19:15:54.186Z,17.05
2023-05-19T19:18:21.326Z,16.73
2023-05-19T19:20:48.333Z,17.00
2023-05-19T19:23:15.489Z,16.89
2023-05-19T19:25:42.550Z,16.95
2023-05-19T19:28:10.570Z,16.73
2023-05-19T19:30:37.648Z,16.50
2023-05-19T19:33:06.553Z,16.73
2023-05-19T19:35:34.027Z,16.45
2023-05-19T19:38:01.375Z,15.90
2023-05-19T19:40:29.402Z,16.20
2023-05-19T19:42:56.492Z,16.45
2023-05-19T19:45:23.878Z,16.41
2023-05-19T19:47:51.764Z,16.08
2023-05-19T19:50:19.065Z,16.10
2023-05-19T19:52:46.280Z,16.23
2023-05-19T19:55:13.450Z,16.46
2023-05-19T19:57:40.584Z,16.34
2023-05-19T20:00:08.632Z,15.99
2023-05-19T20:02:41.036Z,16.44
2023-05-19T20:05:13.316Z,16.97
2023-05-19T20:07:40.333Z,16.04
2023-05-19T20:10:08.316Z,15.93
2023-05-19T20:12:35.492Z,16.15
2023-05-19T20:15:02.523Z,16.31
2023-05-19T20:17:29.613Z,16.38
2023-05-19T20:19:56.689Z,16.00
2023-05-19T20:22:23.781Z,16.52
2023-05-19T20:24:50.840Z,16.34
2023-05-19T20:27:17.910Z,16.01
2023-05-19T20:29:47.113Z,16.34
2023-05-19T20:32:14.171Z,16.74
2023-05-19T20:34:41.415Z,16.46
2023-05-19T20:37:08.630Z,16.72
2023-05-19T20:39:35.774Z,16.75
2023-05-19T20:42:02.808Z,16.08
2023-05-19T20:44:29.895Z,16.04
2023-05-19T20:46:57.935Z,16.49
2023-05-19T20:49:25.064Z,15.95
2023-05-19T20:51:52.495Z,16.46
2023-05-19T20:54:20.313Z,16.08
2023-05-19T20:56:47.532Z,16.55
2023-05-19T20:59:14.694Z,16.01
2023-05-19T21:01:42.314Z,16.15
2023-05-19T21:04:09.757Z,16.58
2023-05-19T21:06:37.045Z,16.62
2023-05-19T21:09:06.732Z,16.66
2023-05-19T21:11:34.476Z,16.97
2023-05-19T21:14:04.557Z,16.88
2023-05-19T21:16:32.220Z,16.81
2023-05-19T21:18:59.652Z,16.77
2023-05-19T21:21:27.049Z,16.54
2023-05-19T21:23:54.165Z,16.12
2023-05-19T21:26:22.179Z,16.42
2023-05-19T21:28:49.237Z,16.61
2023-05-19T21:31:16.734Z,16.13
2023-05-19T21:33:43.934Z,16.59
2023-05-19T21:36:11.067Z,16.77
2023-05-19T21:38:38.045Z,16.14
2023-05-19T21:41:05.155Z,16.71
2023-05-19T21:43:32.169Z,16.88
2023-05-19T21:45:59.348Z,16.02
2023-05-19T21:48:26.566Z,15.64
2023-05-19T21:50:54.669Z,16.14
2023-05-19T21:53:21.759Z,15.54
2023-05-19T21:55:48.909Z,15.83
2023-05-19T21:58:16.297Z,15.13
2023-05-19T22:00:47.715Z,15.34
2023-05-19T22:03:15.317Z,15.43
2023-05-19T22:05:42.423Z,16.35
2023-05-19T22:08:09.516Z,15.50
2023-05-19T22:10:37.411Z,16.35
2023-05-19T22:13:04.481Z,16.75
2023-05-19T22:15:31.686Z,16.94
2023-05-19T22:17:58.860Z,16.78
2023-05-19T22:20:25.977Z,17.28
2023-05-19T22:22:53.002Z,16.73
2023-05-19T22:25:20.273Z,17.04
2023-05-19T22:27:47.381Z,17.42
2023-05-19T22:30:14.421Z,17.43
2023-05-19T22:32:41.786Z,17.02
2023-05-19T22:35:09.050Z,16.70
2023-05-19T22:37:36.063Z,16.81
2023-05-19T22:40:03.342Z,16.72
2023-05-19T22:42:30.341Z,16.29
2023-05-19T22:44:57.379Z,16.11
2023-05-19T22:47:24.443Z,15.82
2023-05-19T22:49:51.506Z,16.29
2023-05-19T22:52:18.718Z,16.47
2023-05-19T22:54:45.809Z,16.13
2023-05-19T22:57:12.850Z,16.66
2023-05-19T22:59:41.116Z,17.02
2023-05-19T23:02:08.197Z,17.48
2023-05-19T23:04:35.649Z,17.71
2023-05-19T23:07:02.783Z,17.75
2023-05-19T23:09:30.642Z,17.95
2023-05-19T23:11:57.748Z,18.12
2023-05-19T23:14:26.220Z,17.86
2023-05-19T23:16:53.239Z,17.88
2023-05-19T23:19:23.444Z,17.92
2023-05-19T23:21:50.622Z,17.97
2023-05-19T23:24:17.736Z,17.97
2023-05-19T23:26:44.746Z,17.85
2023-05-19T23:29:13.099Z,17.57
2023-05-19T23:31:41.152Z,17.46
2023-05-19T23:34:08.283Z,17.47
2023-05-19T23:36:35.397Z,17.45
2023-05-19T23:39:02.543Z,17.41
2023-05-19T23:41:29.630Z,17.43
2023-05-19T23:43:56.769Z,17.30
2023-05-19T23:46:23.848Z,17.39
2023-05-19T23:48:51.261Z,17.22
2023-05-19T23:51:18.441Z,17.27
2023-05-19T23:53:45.683Z,17.24
2023-05-19T23:56:12.796Z,17.18
2023-05-19T23:58:39.938Z,17.05
